sensor_id;sensor_type;location;lat;lon;timestamp;pressure;altitude;pressure_sealevel;temperature
53412;BMP280;39307;52.870;13.660;2023-05-15T00:01:14;100627.44;;;15.05
53412;BMP280;39307;52.870;13.660;2023-05-15T00:03:40;100622.03;;;14.94
53412;BMP280;39307;52.870;13.660;2023-05-15T00:06:09;100622.00;;;15.00
53412;BMP280;39307;52.870;13.660;2023-05-15T00:08:35;100615.78;;;14.88
53412;BMP280;39307;52.870;13.660;2023-05-15T00:11:01;100629.88;;;14.70
53412;BMP280;39307;52.870;13.660;2023-05-15T00:13:28;100621.59;;;14.66
53412;BMP280;39307;52.870;13.660;2023-05-15T00:15:54;100619.75;;;14.67
53412;BMP280;39307;52.870;13.660;2023-05-15T00:18:20;100615.44;;;14.78
53412;BMP280;39307;52.870;13.660;2023-05-15T00:20:46;100613.22;;;14.75
53412;BMP280;39307;52.870;13.660;2023-05-15T00:23:13;100605.53;;;14.74
53412;BMP280;39307;52.870;13.660;2023-05-15T00:25:39;100604.84;;;14.85
53412;BMP280;39307;52.870;13.660;2023-05-15T00:28:05;100605.31;;;14.75
53412;BMP280;39307;52.870;13.660;2023-05-15T00:30:31;100600.22;;;14.80
53412;BMP280;39307;52.870;13.660;2023-05-15T00:32:58;100603.09;;;14.72
53412;BMP280;39307;52.870;13.660;2023-05-15T00:35:24;100593.38;;;14.73
53412;BMP280;39307;52.870;13.660;2023-05-15T00:37:51;100594.81;;;14.69
53412;BMP280;39307;52.870;13.660;2023-05-15T00:40:20;100585.31;;;14.68
53412;BMP280;39307;52.870;13.660;2023-05-15T00:42:48;100585.69;;;14.72
53412;BMP280;39307;52.870;13.660;2023-05-15T00:45:15;100579.19;;;14.74
53412;BMP280;39307;52.870;13.660;2023-05-15T00:47:42;100572.53;;;14.72
53412;BMP280;39307;52.870;13.660;2023-05-15T00:50:09;100571.72;;;14.71
53412;BMP280;39307;52.870;13.660;2023-05-15T00:52:36;100567.88;;;14.67
53412;BMP280;39307;52.870;13.660;2023-05-15T00:55:03;100567.97;;;14.54
53412;BMP280;39307;52.870;13.660;2023-05-15T00:57:30;100567.19;;;14.47
53412;BMP280;39307;52.870;13.660;2023-05-15T00:59:57;100571.88;;;14.39
53412;BMP280;39307;52.870;13.660;2023-05-15T01:02:24;100560.97;;;14.36
53412;BMP280;39307;52.870;13.660;2023-05-15T01:04:50;100564.25;;;14.31
53412;BMP280;39307;52.870;13.660;2023-05-15T01:07:16;100566.47;;;14.28
53412;BMP280;39307;52.870;13.660;2023-05-15T01:09:43;100560.63;;;14.26
53412;BMP280;39307;52.870;13.660;2023-05-15T01:12:09;100566.31;;;14.23
53412;BMP280;39307;52.870;13.660;2023-05-15T01:14:36;100558.06;;;14.13
53412;BMP280;39307;52.870;13.660;2023-05-15T01:17:02;100560.06;;;14.11
53412;BMP280;39307;52.870;13.660;2023-05-15T01:19:29;100558.25;;;14.12
53412;BMP280;39307;52.870;13.660;2023-05-15T01:22:24;100557.09;;;13.95
53412;BMP280;39307;52.870;13.660;2023-05-15T01:25:19;100551.84;;;13.82
53412;BMP280;39307;52.870;13.660;2023-05-15T01:28:02;100557.53;;;13.73
53412;BMP280;39307;52.870;13.660;2023-05-15T01:30:37;100551.28;;;13.67
53412;BMP280;39307;52.870;13.660;2023-05-15T01:33:21;100549.47;;;13.55
53412;BMP280;39307;52.870;13.660;2023-05-15T01:38:50;100553.97;;;13.35
53412;BMP280;39307;52.870;13.660;2023-05-15T01:41:34;100545.47;;;13.33
53412;BMP280;39307;52.870;13.660;2023-05-15T01:44:14;100551.97;;;13.25
53412;BMP280;39307;52.870;13.660;2023-05-15T01:46:44;100549.72;;;13.22
53412;BMP280;39307;52.870;13.660;2023-05-15T01:49:13;100544.72;;;13.07
53412;BMP280;39307;52.870;13.660;2023-05-15T01:51:44;100545.50;;;13.08
53412;BMP280;39307;52.870;13.660;2023-05-15T01:54:14;100542.88;;;13.08
53412;BMP280;39307;52.870;13.660;2023-05-15T01:56:41;100545.69;;;13.06
53412;BMP280;39307;52.870;13.660;2023-05-15T01:59:08;100541.88;;;13.02
53412;BMP280;39307;52.870;13.660;2023-05-15T02:01:35;100538.03;;;12.92
53412;BMP280;39307;52.870;13.660;2023-05-15T02:04:03;100535.81;;;12.96
53412;BMP280;39307;52.870;13.660;2023-05-15T02:06:29;100537.19;;;12.79
53412;BMP280;39307;52.870;13.660;2023-05-15T02:08:56;100544.47;;;12.70
53412;BMP280;39307;52.870;13.660;2023-05-15T02:11:23;100536.41;;;12.85
53412;BMP280;39307;52.870;13.660;2023-05-15T02:13:49;100534.38;;;12.87
53412;BMP280;39307;52.870;13.660;2023-05-15T02:16:16;100528.53;;;12.78
53412;BMP280;39307;52.870;13.660;2023-05-15T02:18:43;100526.25;;;12.63
53412;BMP280;39307;52.870;13.660;2023-05-15T02:21:09;100522.97;;;12.41
53412;BMP280;39307;52.870;13.660;2023-05-15T02:23:35;100517.97;;;12.46
53412;BMP280;39307;52.870;13.660;2023-05-15T02:29:20;100530.06;;;12.54
53412;BMP280;39307;52.870;13.660;2023-05-15T02:32:10;100519.97;;;12.57
53412;BMP280;39307;52.870;13.660;2023-05-15T02:35:02;100520.72;;;12.26
53412;BMP280;39307;52.870;13.660;2023-05-15T02:37:35;100517.88;;;12.14
53412;BMP280;39307;52.870;13.660;2023-05-15T02:40:07;100526.50;;;12.02
53412;BMP280;39307;52.870;13.660;2023-05-15T02:42:35;100526.34;;;12.10
53412;BMP280;39307;52.870;13.660;2023-05-15T02:45:02;100514.03;;;12.11
53412;BMP280;39307;52.870;13.660;2023-05-15T02:47:30;100510.78;;;12.15
53412;BMP280;39307;52.870;13.660;2023-05-15T02:49:58;100510.22;;;12.19
53412;BMP280;39307;52.870;13.660;2023-05-15T02:52:25;100505.53;;;12.15
53412;BMP280;39307;52.870;13.660;2023-05-15T02:54:51;100497.69;;;12.15
53412;BMP280;39307;52.870;13.660;2023-05-15T02:57:17;100505.88;;;11.93
53412;BMP280;39307;52.870;13.660;2023-05-15T02:59:44;100493.81;;;11.98
53412;BMP280;39307;52.870;13.660;2023-05-15T03:02:10;100497.78;;;11.88
53412;BMP280;39307;52.870;13.660;2023-05-15T03:04:36;100498.56;;;11.82
53412;BMP280;39307;52.870;13.660;2023-05-15T03:07:03;100487.09;;;11.83
53412;BMP280;39307;52.870;13.660;2023-05-15T03:09:29;100491.91;;;11.80
53412;BMP280;39307;52.870;13.660;2023-05-15T03:11:55;100488.44;;;11.73
53412;BMP280;39307;52.870;13.660;2023-05-15T03:14:21;100481.75;;;11.70
53412;BMP280;39307;52.870;13.660;2023-05-15T03:16:48;100482.19;;;11.67
53412;BMP280;39307;52.870;13.660;2023-05-15T03:19:14;100482.97;;;11.61
53412;BMP280;39307;52.870;13.660;2023-05-15T03:21:40;100479.75;;;11.66
53412;BMP280;39307;52.870;13.660;2023-05-15T03:24:06;100485.09;;;11.52
53412;BMP280;39307;52.870;13.660;2023-05-15T03:26:33;100485.28;;;11.44
53412;BMP280;39307;52.870;13.660;2023-05-15T03:29:00;100476.66;;;11.50
53412;BMP280;39307;52.870;13.660;2023-05-15T03:31:26;100482.91;;;11.55
53412;BMP280;39307;52.870;13.660;2023-05-15T03:33:52;100476.66;;;11.50
53412;BMP280;39307;52.870;13.660;2023-05-15T03:36:18;100482.31;;;11.53
53412;BMP280;39307;52.870;13.660;2023-05-15T03:38:44;100473.81;;;11.51
53412;BMP280;39307;52.870;13.660;2023-05-15T03:41:10;100469.34;;;11.45
53412;BMP280;39307;52.870;13.660;2023-05-15T03:43:37;100482.56;;;11.31
53412;BMP280;39307;52.870;13.660;2023-05-15T03:46:03;100469.47;;;11.31
53412;BMP280;39307;52.870;13.660;2023-05-15T03:48:30;100474.75;;;11.37
53412;BMP280;39307;52.870;13.660;2023-05-15T03:50:56;100465.00;;;11.25
53412;BMP280;39307;52.870;13.660;2023-05-15T03:53:22;100470.78;;;11.21
53412;BMP280;39307;52.870;13.660;2023-05-15T03:55:48;100470.63;;;11.22
53412;BMP280;39307;52.870;13.660;2023-05-15T03:58:14;100466.59;;;11.26
53412;BMP280;39307;52.870;13.660;2023-05-15T04:00:41;100480.22;;;11.15
53412;BMP280;39307;52.870;13.660;2023-05-15T04:03:07;100474.81;;;11.17
53412;BMP280;39307;52.870;13.660;2023-05-15T04:05:33;100474.94;;;11.09
53412;BMP280;39307;52.870;13.660;2023-05-15T04:07:59;100472.13;;;11.04
53412;BMP280;39307;52.870;13.660;2023-05-15T04:10:25;100474.06;;;10.95
53412;BMP280;39307;52.870;13.660;2023-05-15T04:12:52;100476.50;;;11.03
53412;BMP280;39307;52.870;13.660;2023-05-15T04:15:20;100479.03;;;10.91
53412;BMP280;39307;52.870;13.660;2023-05-15T04:17:48;100468.44;;;10.98
53412;BMP280;39307;52.870;13.660;2023-05-15T04:20:16;100474.94;;;10.82
53412;BMP280;39307;52.870;13.660;2023-05-15T04:22:43;100473.44;;;10.94
53412;BMP280;39307;52.870;13.660;2023-05-15T04:25:10;100466.16;;;10.89
53412;BMP280;39307;52.870;13.660;2023-05-15T04:27:37;100460.25;;;10.81
53412;BMP280;39307;52.870;13.660;2023-05-15T04:30:04;100462.88;;;10.81
53412;BMP280;39307;52.870;13.660;2023-05-15T04:32:31;100460.50;;;10.86
53412;BMP280;39307;52.870;13.660;2023-05-15T04:34:57;100456.25;;;10.85
53412;BMP280;39307;52.870;13.660;2023-05-15T04:37:23;100452.19;;;10.82
53412;BMP280;39307;52.870;13.660;2023-05-15T04:39:49;100451.22;;;10.83
53412;BMP280;39307;52.870;13.660;2023-05-15T04:42:16;100450.44;;;10.89
53412;BMP280;39307;52.870;13.660;2023-05-15T04:44:42;100447.63;;;10.91
53412;BMP280;39307;52.870;13.660;2023-05-15T04:47:08;100442.66;;;11.02
53412;BMP280;39307;52.870;13.660;2023-05-15T04:49:35;100439.84;;;11.03
53412;BMP280;39307;52.870;13.660;2023-05-15T04:52:01;100442.56;;;11.16
53412;BMP280;39307;52.870;13.660;2023-05-15T04:54:28;100437.16;;;11.24
53412;BMP280;39307;52.870;13.660;2023-05-15T04:56:54;100437.94;;;11.24
53412;BMP280;39307;52.870;13.660;2023-05-15T04:59:20;100437.53;;;11.21
53412;BMP280;39307;52.870;13.660;2023-05-15T05:01:46;100442.63;;;11.29
53412;BMP280;39307;52.870;13.660;2023-05-15T05:04:13;100441.28;;;11.39
53412;BMP280;39307;52.870;13.660;2023-05-15T05:06:39;100432.09;;;11.50
53412;BMP280;39307;52.870;13.660;2023-05-15T05:09:05;100424.84;;;11.58
53412;BMP280;39307;52.870;13.660;2023-05-15T05:11:31;100417.63;;;11.73
53412;BMP280;39307;52.870;13.660;2023-05-15T05:13:57;100417.28;;;11.88
53412;BMP280;39307;52.870;13.660;2023-05-15T05:16:24;100421.94;;;11.86
53412;BMP280;39307;52.870;13.660;2023-05-15T05:18:50;100417.09;;;11.83
53412;BMP280;39307;52.870;13.660;2023-05-15T05:21:16;100419.88;;;11.82
53412;BMP280;39307;52.870;13.660;2023-05-15T05:23:42;100420.53;;;11.97
53412;BMP280;39307;52.870;13.660;2023-05-15T05:26:08;100424.19;;;12.09
53412;BMP280;39307;52.870;13.660;2023-05-15T05:28:34;100418.38;;;12.13
53412;BMP280;39307;52.870;13.660;2023-05-15T05:31:01;100408.28;;;12.16
53412;BMP280;39307;52.870;13.660;2023-05-15T05:33:27;100408.88;;;12.25
53412;BMP280;39307;52.870;13.660;2023-05-15T05:35:53;100406.84;;;12.14
53412;BMP280;39307;52.870;13.660;2023-05-15T05:38:19;100407.47;;;12.29
53412;BMP280;39307;52.870;13.660;2023-05-15T05:40:46;100398.19;;;12.26
53412;BMP280;39307;52.870;13.660;2023-05-15T05:43:12;100405.25;;;12.26
53412;BMP280;39307;52.870;13.660;2023-05-15T05:45:38;100409.88;;;12.17
53412;BMP280;39307;52.870;13.660;2023-05-15T05:48:04;100405.84;;;12.21
53412;BMP280;39307;52.870;13.660;2023-05-15T05:50:31;100407.06;;;12.25
53412;BMP280;39307;52.870;13.660;2023-05-15T05:52:57;100404.63;;;12.37
53412;BMP280;39307;52.870;13.660;2023-05-15T05:55:23;100409.69;;;12.51
53412;BMP280;39307;52.870;13.660;2023-05-15T05:57:49;100403.44;;;12.58
53412;BMP280;39307;52.870;13.660;2023-05-15T06:00:16;100398.78;;;12.67
53412;BMP280;39307;52.870;13.660;2023-05-15T06:02:42;100401.81;;;12.64
53412;BMP280;39307;52.870;13.660;2023-05-15T06:05:09;100404.81;;;12.67
53412;BMP280;39307;52.870;13.660;2023-05-15T06:07:36;100399.19;;;12.76
53412;BMP280;39307;52.870;13.660;2023-05-15T06:10:02;100392.72;;;12.92
53412;BMP280;39307;52.870;13.660;2023-05-15T06:12:28;100391.47;;;13.07
53412;BMP280;39307;52.870;13.660;2023-05-15T06:14:55;100384.38;;;13.14
53412;BMP280;39307;52.870;13.660;2023-05-15T06:17:21;100383.75;;;13.18
53412;BMP280;39307;52.870;13.660;2023-05-15T06:19:47;100377.22;;;13.33
53412;BMP280;39307;52.870;13.660;2023-05-15T06:22:13;100367.84;;;13.50
53412;BMP280;39307;52.870;13.660;2023-05-15T06:24:40;100380.50;;;13.23
53412;BMP280;39307;52.870;13.660;2023-05-15T06:27:06;100370.13;;;13.40
53412;BMP280;39307;52.870;13.660;2023-05-15T06:29:32;100360.97;;;13.56
53412;BMP280;39307;52.870;13.660;2023-05-15T06:31:58;100363.25;;;13.83
53412;BMP280;39307;52.870;13.660;2023-05-15T06:34:24;100358.69;;;14.02
53412;BMP280;39307;52.870;13.660;2023-05-15T06:36:50;100360.44;;;13.78
53412;BMP280;39307;52.870;13.660;2023-05-15T06:39:17;100369.25;;;13.89
53412;BMP280;39307;52.870;13.660;2023-05-15T06:41:43;100359.84;;;14.06
53412;BMP280;39307;52.870;13.660;2023-05-15T06:44:09;100362.94;;;14.27
53412;BMP280;39307;52.870;13.660;2023-05-15T06:46:35;100362.38;;;14.43
53412;BMP280;39307;52.870;13.660;2023-05-15T06:49:01;100353.00;;;14.53
53412;BMP280;39307;52.870;13.660;2023-05-15T06:51:28;100347.53;;;14.72
53412;BMP280;39307;52.870;13.660;2023-05-15T06:53:55;100340.88;;;14.88
53412;BMP280;39307;52.870;13.660;2023-05-15T06:56:21;100345.13;;;15.06
53412;BMP280;39307;52.870;13.660;2023-05-15T06:58:47;100331.41;;;15.22
53412;BMP280;39307;52.870;13.660;2023-05-15T07:01:13;100338.69;;;15.02
53412;BMP280;39307;52.870;13.660;2023-05-15T07:03:39;100338.69;;;15.02
53412;BMP280;39307;52.870;13.660;2023-05-15T07:06:06;100332.03;;;15.35
53412;BMP280;39307;52.870;13.660;2023-05-15T07:08:32;100330.81;;;15.49
53412;BMP280;39307;52.870;13.660;2023-05-15T07:10:58;100329.63;;;15.63
53412;BMP280;39307;52.870;13.660;2023-05-15T07:13:24;100336.41;;;15.59
53412;BMP280;39307;52.870;13.660;2023-05-15T07:15:51;100331.44;;;15.80
53412;BMP280;39307;52.870;13.660;2023-05-15T07:18:17;100322.72;;;15.91
53412;BMP280;39307;52.870;13.660;2023-05-15T07:20:43;100326.72;;;16.11
53412;BMP280;39307;52.870;13.660;2023-05-15T07:23:10;100327.53;;;16.23
53412;BMP280;39307;52.870;13.660;2023-05-15T07:25:36;100326.63;;;16.29
53412;BMP280;39307;52.870;13.660;2023-05-15T07:28:02;100316.75;;;16.36
53412;BMP280;39307;52.870;13.660;2023-05-15T07:30:28;100319.16;;;16.48
53412;BMP280;39307;52.870;13.660;2023-05-15T07:32:55;100315.59;;;16.66
53412;BMP280;39307;52.870;13.660;2023-05-15T07:35:21;100311.91;;;16.78
53412;BMP280;39307;52.870;13.660;2023-05-15T07:37:47;100312.38;;;16.86
53412;BMP280;39307;52.870;13.660;2023-05-15T07:40:13;100317.44;;;16.54
53412;BMP280;39307;52.870;13.660;2023-05-15T07:42:41;100307.66;;;16.77
53412;BMP280;39307;52.870;13.660;2023-05-15T07:45:07;100309.34;;;16.94
53412;BMP280;39307;52.870;13.660;2023-05-15T07:47:34;100293.94;;;17.03
53412;BMP280;39307;52.870;13.660;2023-05-15T07:50:00;100293.00;;;16.97
53412;BMP280;39307;52.870;13.660;2023-05-15T07:52:26;100289.34;;;17.09
53412;BMP280;39307;52.870;13.660;2023-05-15T07:54:53;100283.06;;;17.27
53412;BMP280;39307;52.870;13.660;2023-05-15T07:57:19;100295.38;;;17.33
53412;BMP280;39307;52.870;13.660;2023-05-15T07:59:45;100282.31;;;17.42
53412;BMP280;39307;52.870;13.660;2023-05-15T08:02:11;100275.25;;;17.32
53412;BMP280;39307;52.870;13.660;2023-05-15T08:04:38;100280.31;;;17.49
53412;BMP280;39307;52.870;13.660;2023-05-15T08:07:06;100275.13;;;17.54
53412;BMP280;39307;52.870;13.660;2023-05-15T08:09:32;100274.06;;;17.39
53412;BMP280;39307;52.870;13.660;2023-05-15T08:12:15;100276.66;;;17.50
53412;BMP280;39307;52.870;13.660;2023-05-15T08:14:41;100266.25;;;17.60
53412;BMP280;39307;52.870;13.660;2023-05-15T08:17:08;100267.47;;;17.69
53412;BMP280;39307;52.870;13.660;2023-05-15T08:19:34;100262.06;;;17.64
53412;BMP280;39307;52.870;13.660;2023-05-15T08:22:00;100273.53;;;16.75
53412;BMP280;39307;52.870;13.660;2023-05-15T08:24:26;100250.81;;;17.02
53412;BMP280;39307;52.870;13.660;2023-05-15T08:26:53;100236.41;;;17.21
53412;BMP280;39307;52.870;13.660;2023-05-15T08:29:19;100230.16;;;17.27
53412;BMP280;39307;52.870;13.660;2023-05-15T08:31:45;100231.13;;;17.21
53412;BMP280;39307;52.870;13.660;2023-05-15T08:34:12;100218.72;;;17.10
53412;BMP280;39307;52.870;13.660;2023-05-15T08:36:38;100211.00;;;17.08
53412;BMP280;39307;52.870;13.660;2023-05-15T08:39:05;100220.78;;;17.08
53412;BMP280;39307;52.870;13.660;2023-05-15T08:44:24;100220.38;;;16.88
53412;BMP280;39307;52.870;13.660;2023-05-15T08:46:52;100222.81;;;16.90
53412;BMP280;39307;52.870;13.660;2023-05-15T08:51:53;100218.63;;;17.05
53412;BMP280;39307;52.870;13.660;2023-05-15T08:54:20;100202.84;;;17.10
53412;BMP280;39307;52.870;13.660;2023-05-15T08:56:47;100215.97;;;17.16
53412;BMP280;39307;52.870;13.660;2023-05-15T08:59:13;100207.56;;;17.19
53412;BMP280;39307;52.870;13.660;2023-05-15T09:01:40;100211.28;;;16.96
53412;BMP280;39307;52.870;13.660;2023-05-15T09:04:06;100211.63;;;17.10
53412;BMP280;39307;52.870;13.660;2023-05-15T09:06:33;100217.88;;;17.21
53412;BMP280;39307;52.870;13.660;2023-05-15T09:09:00;100216.38;;;17.25
53412;BMP280;39307;52.870;13.660;2023-05-15T09:11:28;100218.31;;;17.29
53412;BMP280;39307;52.870;13.660;2023-05-15T09:13:58;100213.81;;;17.30
53412;BMP280;39307;52.870;13.660;2023-05-15T09:16:24;100220.63;;;17.26
53412;BMP280;39307;52.870;13.660;2023-05-15T09:18:52;100213.50;;;17.26
53412;BMP280;39307;52.870;13.660;2023-05-15T09:21:26;100223.84;;;17.28
53412;BMP280;39307;52.870;13.660;2023-05-15T09:23:54;100211.75;;;17.32
53412;BMP280;39307;52.870;13.660;2023-05-15T09:26:21;100213.53;;;17.42
53412;BMP280;39307;52.870;13.660;2023-05-15T09:28:47;100199.50;;;17.42
53412;BMP280;39307;52.870;13.660;2023-05-15T09:31:17;100206.16;;;17.44
53412;BMP280;39307;52.870;13.660;2023-05-15T09:33:44;100198.53;;;17.48
53412;BMP280;39307;52.870;13.660;2023-05-15T09:36:11;100199.34;;;17.48
53412;BMP280;39307;52.870;13.660;2023-05-15T09:38:47;100196.69;;;17.48
53412;BMP280;39307;52.870;13.660;2023-05-15T09:41:13;100199.03;;;17.45
53412;BMP280;39307;52.870;13.660;2023-05-15T09:43:39;100195.09;;;17.47
53412;BMP280;39307;52.870;13.660;2023-05-15T09:46:06;100191.72;;;17.52
53412;BMP280;39307;52.870;13.660;2023-05-15T09:48:33;100197.59;;;17.54
53412;BMP280;39307;52.870;13.660;2023-05-15T09:51:00;100200.06;;;17.60
53412;BMP280;39307;52.870;13.660;2023-05-15T09:53:28;100210.81;;;17.37
53412;BMP280;39307;52.870;13.660;2023-05-15T09:55:54;100206.47;;;17.32
53412;BMP280;39307;52.870;13.660;2023-05-15T09:58:20;100214.47;;;17.36
53412;BMP280;39307;52.870;13.660;2023-05-15T10:00:46;100207.53;;;17.47
53412;BMP280;39307;52.870;13.660;2023-05-15T10:03:13;100204.88;;;17.63
53412;BMP280;39307;52.870;13.660;2023-05-15T10:05:40;100210.28;;;17.68
53412;BMP280;39307;52.870;13.660;2023-05-15T10:08:06;100206.31;;;17.70
53412;BMP280;39307;52.870;13.660;2023-05-15T10:10:32;100211.97;;;17.74
53412;BMP280;39307;52.870;13.660;2023-05-15T10:12:59;100209.22;;;17.69
53412;BMP280;39307;52.870;13.660;2023-05-15T10:15:26;100204.34;;;17.77
53412;BMP280;39307;52.870;13.660;2023-05-15T10:17:55;100201.13;;;17.75
53412;BMP280;39307;52.870;13.660;2023-05-15T10:20:22;100193.66;;;17.89
53412;BMP280;39307;52.870;13.660;2023-05-15T10:22:55;100197.19;;;17.94
53412;BMP280;39307;52.870;13.660;2023-05-15T10:28:32;100194.56;;;18.10
53412;BMP280;39307;52.870;13.660;2023-05-15T10:31:00;100190.53;;;18.24
53412;BMP280;39307;52.870;13.660;2023-05-15T10:33:28;100191.63;;;18.28
53412;BMP280;39307;52.870;13.660;2023-05-15T10:35:55;100181.81;;;18.45
53412;BMP280;39307;52.870;13.660;2023-05-15T10:38:25;100182.72;;;18.55
53412;BMP280;39307;52.870;13.660;2023-05-15T10:40:51;100178.59;;;18.64
53412;BMP280;39307;52.870;13.660;2023-05-15T10:43:19;100189.31;;;18.74
53412;BMP280;39307;52.870;13.660;2023-05-15T10:45:46;100177.00;;;18.63
53412;BMP280;39307;52.870;13.660;2023-05-15T10:48:13;100169.75;;;18.79
53412;BMP280;39307;52.870;13.660;2023-05-15T10:50:40;100167.56;;;18.93
53412;BMP280;39307;52.870;13.660;2023-05-15T10:53:09;100165.63;;;18.88
53412;BMP280;39307;52.870;13.660;2023-05-15T10:55:35;100164.94;;;18.77
53412;BMP280;39307;52.870;13.660;2023-05-15T10:58:08;100170.72;;;18.90
53412;BMP280;39307;52.870;13.660;2023-05-15T11:00:41;100157.63;;;19.05
53412;BMP280;39307;52.870;13.660;2023-05-15T11:03:08;100160.97;;;18.95
53412;BMP280;39307;52.870;13.660;2023-05-15T11:06:07;100158.78;;;19.13
53412;BMP280;39307;52.870;13.660;2023-05-15T11:08:35;100156.00;;;19.30
53412;BMP280;39307;52.870;13.660;2023-05-15T11:11:01;100151.50;;;19.30
53412;BMP280;39307;52.870;13.660;2023-05-15T11:17:08;100131.75;;;19.78
53412;BMP280;39307;52.870;13.660;2023-05-15T11:22:17;100111.19;;;20.55
53412;BMP280;39307;52.870;13.660;2023-05-15T11:25:01;100106.94;;;20.54
53412;BMP280;39307;52.870;13.660;2023-05-15T11:27:31;100093.94;;;20.68
53412;BMP280;39307;52.870;13.660;2023-05-15T11:30:19;100087.34;;;20.85
53412;BMP280;39307;52.870;13.660;2023-05-15T11:35:28;100079.41;;;21.19
53412;BMP280;39307;52.870;13.660;2023-05-15T11:37:56;100070.13;;;21.37
53412;BMP280;39307;52.870;13.660;2023-05-15T11:40:25;100069.03;;;21.57
53412;BMP280;39307;52.870;13.660;2023-05-15T11:43:02;100062.53;;;22.02
53412;BMP280;39307;52.870;13.660;2023-05-15T11:45:34;100056.22;;;22.51
53412;BMP280;39307;52.870;13.660;2023-05-15T11:48:01;100043.75;;;22.89
53412;BMP280;39307;52.870;13.660;2023-05-15T11:50:29;100046.69;;;23.21
53412;BMP280;39307;52.870;13.660;2023-05-15T11:52:56;100035.09;;;23.35
53412;BMP280;39307;52.870;13.660;2023-05-15T11:55:25;100042.66;;;22.95
53412;BMP280;39307;52.870;13.660;2023-05-15T11:57:52;100040.66;;;23.11
53412;BMP280;39307;52.870;13.660;2023-05-15T12:00:18;100031.16;;;23.28
53412;BMP280;39307;52.870;13.660;2023-05-15T12:02:44;100029.63;;;23.78
53412;BMP280;39307;52.870;13.660;2023-05-15T12:05:10;100013.31;;;24.26
53412;BMP280;39307;52.870;13.660;2023-05-15T12:07:38;100012.06;;;24.36
53412;BMP280;39307;52.870;13.660;2023-05-15T12:10:05;100011.56;;;24.53
53412;BMP280;39307;52.870;13.660;2023-05-15T12:12:31;100010.75;;;23.93
53412;BMP280;39307;52.870;13.660;2023-05-15T12:15:00;100018.25;;;23.91
53412;BMP280;39307;52.870;13.660;2023-05-15T12:17:26;100014.13;;;23.98
53412;BMP280;39307;52.870;13.660;2023-05-15T12:19:55;100018.03;;;23.87
53412;BMP280;39307;52.870;13.660;2023-05-15T12:22:22;100029.91;;;23.16
53412;BMP280;39307;52.870;13.660;2023-05-15T12:24:48;100054.66;;;22.93
53412;BMP280;39307;52.870;13.660;2023-05-15T12:27:14;100071.00;;;22.29
53412;BMP280;39307;52.870;13.660;2023-05-15T12:29:41;100069.59;;;21.35
53412;BMP280;39307;52.870;13.660;2023-05-15T12:32:09;100078.38;;;20.30
53412;BMP280;39307;52.870;13.660;2023-05-15T12:34:35;100087.78;;;19.61
53412;BMP280;39307;52.870;13.660;2023-05-15T12:37:01;100095.25;;;19.33
53412;BMP280;39307;52.870;13.660;2023-05-15T12:39:28;100091.47;;;18.93
53412;BMP280;39307;52.870;13.660;2023-05-15T12:41:57;100112.44;;;18.52
53412;BMP280;39307;52.870;13.660;2023-05-15T12:44:24;100116.41;;;18.29
53412;BMP280;39307;52.870;13.660;2023-05-15T12:46:53;100127.34;;;18.37
53412;BMP280;39307;52.870;13.660;2023-05-15T12:49:22;100131.06;;;18.15
53412;BMP280;39307;52.870;13.660;2023-05-15T12:51:49;100138.38;;;18.08
53412;BMP280;39307;52.870;13.660;2023-05-15T12:54:19;100150.03;;;18.07
53412;BMP280;39307;52.870;13.660;2023-05-15T12:56:48;100149.78;;;17.92
53412;BMP280;39307;52.870;13.660;2023-05-15T12:59:15;100155.81;;;17.72
53412;BMP280;39307;52.870;13.660;2023-05-15T13:01:41;100156.53;;;17.51
53412;BMP280;39307;52.870;13.660;2023-05-15T13:04:08;100165.09;;;17.42
53412;BMP280;39307;52.870;13.660;2023-05-15T13:06:38;100161.66;;;17.25
53412;BMP280;39307;52.870;13.660;2023-05-15T13:09:04;100152.25;;;17.06
53412;BMP280;39307;52.870;13.660;2023-05-15T13:11:30;100162.06;;;16.95
53412;BMP280;39307;52.870;13.660;2023-05-15T13:13:57;100149.25;;;16.87
53412;BMP280;39307;52.870;13.660;2023-05-15T13:16:24;100139.44;;;16.71
53412;BMP280;39307;52.870;13.660;2023-05-15T13:18:51;100136.66;;;16.77
53412;BMP280;39307;52.870;13.660;2023-05-15T13:21:18;100139.63;;;16.81
53412;BMP280;39307;52.870;13.660;2023-05-15T13:23:44;100132.66;;;16.64
53412;BMP280;39307;52.870;13.660;2023-05-15T13:26:10;100129.53;;;16.39
53412;BMP280;39307;52.870;13.660;2023-05-15T13:28:37;100123.59;;;16.32
53412;BMP280;39307;52.870;13.660;2023-05-15T13:31:03;100132.09;;;16.23
53412;BMP280;39307;52.870;13.660;2023-05-15T13:33:29;100132.56;;;16.20
53412;BMP280;39307;52.870;13.660;2023-05-15T13:35:56;100137.38;;;16.12
53412;BMP280;39307;52.870;13.660;2023-05-15T13:38:22;100135.75;;;16.11
53412;BMP280;39307;52.870;13.660;2023-05-15T13:40:48;100137.97;;;16.14
53412;BMP280;39307;52.870;13.660;2023-05-15T13:43:14;100143.69;;;16.11
53412;BMP280;39307;52.870;13.660;2023-05-15T13:45:41;100135.88;;;16.04
53412;BMP280;39307;52.870;13.660;2023-05-15T13:48:07;100153.09;;;16.07
53412;BMP280;39307;52.870;13.660;2023-05-15T13:50:33;100175.03;;;15.96
53412;BMP280;39307;52.870;13.660;2023-05-15T13:52:59;100175.94;;;15.90
53412;BMP280;39307;52.870;13.660;2023-05-15T13:55:26;100170.78;;;15.95
53412;BMP280;39307;52.870;13.660;2023-05-15T13:57:52;100176.50;;;16.03
53412;BMP280;39307;52.870;13.660;2023-05-15T14:00:19;100166.75;;;15.92
53412;BMP280;39307;52.870;13.660;2023-05-15T14:02:45;100175.25;;;15.83
53412;BMP280;39307;52.870;13.660;2023-05-15T14:05:13;100178.34;;;15.80
53412;BMP280;39307;52.870;13.660;2023-05-15T14:07:40;100171.09;;;15.76
53412;BMP280;39307;52.870;13.660;2023-05-15T14:10:06;100169.25;;;15.76